Time;durP1;ratioP1;P1;durP2;ratioP2;P2;SDS_P1;SDS_P2;PMS_P1;PMS_P2;Temp;Humidity;BMP_temperature;BMP_pressure;BME280_temperature;BME280_humidity;BME280_pressure;Samples;Min_cycle;Max_cycle;Signal;HPM_P1;HPM_P2
2023/03/07 00:00:34;;;;;;;20.05;9.02;;;;;;;0.36;100.00;94341.03;5007299;28;20038;-72
2023/03/07 00:03:14;;;;;;;24.10;10.00;;;;;;;0.32;100.00;94347.69;5010364;28;20509;-72
2023/03/07 00:05:40;;;;;;;21.70;9.38;;;;;;;0.23;100.00;94342.09;5008440;28;20049;-72
2023/03/07 00:08:06;;;;;;;21.70;9.35;;;;;;;0.22;100.00;94334.56;5012100;28;20053;-72
2023/03/07 00:10:32;;;;;;;19.20;8.55;;;;;;;0.28;100.00;94346.56;5009967;28;20038;-72
2023/03/07 00:12:57;;;;;;;21.75;9.52;;;;;;;0.38;100.00;94351.91;5004999;28;20065;-72
2023/03/07 00:15:23;;;;;;;19.55;8.55;;;;;;;0.43;100.00;94341.66;5007090;28;20050;-72
2023/03/07 00:17:48;;;;;;;21.67;9.57;;;;;;;0.26;100.00;94338.25;5008566;28;20050;-72
2023/03/07 00:20:14;;;;;;;20.13;8.40;;;;;;;0.26;100.00;94340.81;5009416;28;20554;-72
2023/03/07 00:22:40;;;;;;;19.52;8.57;;;;;;;0.36;100.00;94346.19;5008644;28;20061;-72
2023/03/07 00:25:07;;;;;;;22.13;8.75;;;;;;;0.30;100.00;94341.94;5010739;28;20568;-72
2023/03/07 00:27:33;;;;;;;18.92;8.15;;;;;;;0.23;100.00;94330.94;5010546;28;20046;-71
2023/03/07 00:29:59;;;;;;;23.02;9.10;;;;;;;0.28;100.00;94333.63;5009559;28;20064;-72
2023/03/07 00:32:25;;;;;;;20.65;8.45;;;;;;;0.21;100.00;94322.66;5009373;28;20048;-72
2023/03/07 00:34:52;;;;;;;24.02;9.10;;;;;;;0.25;100.00;94328.94;5002421;28;20042;-72
2023/03/07 00:37:17;;;;;;;22.63;9.00;;;;;;;0.31;100.00;94327.97;5007784;28;20041;-72
2023/03/07 00:39:43;;;;;;;20.77;9.35;;;;;;;0.25;100.00;94318.56;5007404;28;20038;-72
2023/03/07 00:42:08;;;;;;;22.40;8.57;;;;;;;0.26;100.00;94320.13;5009282;28;20619;-72
2023/03/07 00:44:34;;;;;;;21.63;8.27;;;;;;;0.22;100.00;94313.88;5014067;28;20091;-72
2023/03/07 00:47:00;;;;;;;24.45;8.98;;;;;;;0.31;100.00;94317.63;5008316;28;20506;-72
2023/03/07 00:49:26;;;;;;;26.73;9.50;;;;;;;0.29;100.00;94309.34;5003777;28;20046;-72
2023/03/07 00:51:52;;;;;;;31.88;9.65;;;;;;;0.29;100.00;94317.09;5005563;28;20030;-72
2023/03/07 00:54:18;;;;;;;21.27;8.85;;;;;;;0.31;100.00;94317.63;5005944;28;20141;-72
2023/03/07 00:56:43;;;;;;;27.13;8.52;;;;;;;0.27;100.00;94311.34;5009734;28;20576;-72
2023/03/07 00:59:09;;;;;;;20.35;9.23;;;;;;;0.25;100.00;94310.81;5007981;28;20456;-72
2023/03/07 01:01:35;;;;;;;19.42;8.02;;;;;;;0.26;100.00;94296.84;5008243;28;20049;-72
2023/03/07 01:04:01;;;;;;;21.20;7.55;;;;;;;0.39;100.00;94299.13;5004900;28;20157;-72
2023/03/07 01:06:29;;;;;;;17.70;7.88;;;;;;;0.31;100.00;94291.75;5011209;28;20073;-71
2023/03/07 01:09:00;;;;;;;18.73;8.18;;;;;;;0.42;100.00;94297.88;5009734;28;20042;-72
2023/03/07 01:11:27;;;;;;;19.08;8.43;;;;;;;0.39;100.00;94299.13;5010748;28;20718;-72
2023/03/07 01:13:58;;;;;;;23.15;8.65;;;;;;;0.33;100.00;94294.88;5008608;28;20041;-72
2023/03/07 01:16:27;;;;;;;18.10;7.93;;;;;;;0.39;100.00;94293.16;5011124;28;20100;-72
2023/03/07 01:18:56;;;;;;;16.20;6.85;;;;;;;0.44;100.00;94296.63;5009002;28;20041;-72
2023/03/07 01:21:27;;;;;;;15.13;7.03;;;;;;;0.50;100.00;94290.50;5008753;28;20129;-72
2023/03/07 01:23:53;;;;;;;16.25;6.95;;;;;;;0.54;100.00;94279.69;5008541;28;20080;-72
2023/03/07 01:26:22;;;;;;;18.25;7.47;;;;;;;0.56;100.00;94290.56;5011228;28;20080;-72
2023/03/07 01:28:50;;;;;;;17.10;7.30;;;;;;;0.49;100.00;94280.41;5008441;28;20042;-71
2023/03/07 01:31:15;;;;;;;17.35;7.57;;;;;;;0.52;100.00;94272.94;5006110;28;20038;-71
2023/03/07 01:33:41;;;;;;;17.15;6.85;;;;;;;0.66;100.00;94272.59;5004516;28;20042;-71
2023/03/07 01:36:24;;;;;;;17.73;7.57;;;;;;;0.62;100.00;94266.34;5009192;28;20458;-71
2023/03/07 01:38:53;;;;;;;15.63;6.95;;;;;;;0.62;100.00;94271.53;5006997;28;20100;-71
2023/03/07 01:41:19;;;;;;;18.33;7.50;;;;;;;0.72;100.00;94269.09;5005800;28;20126;-71
2023/03/07 01:43:49;;;;;;;14.55;6.70;;;;;;;0.66;100.00;94267.41;5007899;28;20092;-71
2023/03/07 01:46:17;;;;;;;14.43;6.95;;;;;;;0.80;100.00;94268.66;5010885;28;20049;-71
2023/03/07 01:48:49;;;;;;;15.05;6.88;;;;;;;0.76;100.00;94266.78;5011226;28;20042;-71
2023/03/07 01:51:15;;;;;;;18.95;6.90;;;;;;;0.71;100.00;94264.91;5009515;28;20038;-71
2023/03/07 01:53:42;;;;;;;15.77;7.10;;;;;;;0.76;100.00;94262.41;5006552;28;20045;-71
2023/03/07 01:56:08;;;;;;;18.45;7.07;;;;;;;0.82;100.00;94258.06;5009829;28;20103;-71
2023/03/07 01:58:37;;;;;;;17.15;7.05;;;;;;;0.84;100.00;94259.38;5004888;28;20042;-71
2023/03/07 02:01:03;;;;;;;14.85;6.60;;;;;;;0.89;100.00;94263.06;5008126;28;20068;-72
2023/03/07 02:03:36;;;;;;;14.40;5.70;;;;;;;0.81;100.00;94253.91;5000622;28;20045;-71
2023/03/07 02:06:06;;;;;;;17.75;6.95;;;;;;;0.82;100.00;94256.25;5008658;28;20108;-71
2023/03/07 02:08:34;;;;;;;18.45;7.47;;;;;;;0.88;100.00;94256.31;5009656;28;20038;-71
2023/03/07 02:11:00;;;;;;;13.93;6.70;;;;;;;0.91;100.00;94248.09;5008263;28;20038;-72
2023/03/07 02:13:25;;;;;;;15.45;6.28;;;;;;;0.92;100.00;94244.47;5004920;28;20046;-71
2023/03/07 02:15:51;;;;;;;15.32;6.60;;;;;;;0.81;100.00;94243.56;5008681;28;20041;-72
2023/03/07 02:18:23;;;;;;;15.98;7.35;;;;;;;0.73;100.00;94239.56;5005446;28;20421;-72
2023/03/07 02:21:11;;;;;;;17.27;6.70;;;;;;;0.78;100.00;94239.63;5005830;28;20046;-72
2023/03/07 02:23:52;;;;;;;14.93;6.43;;;;;;;0.80;100.00;94237.56;5005034;28;20049;-72
2023/03/07 02:26:29;;;;;;;15.00;7.18;;;;;;;0.78;100.00;94239.63;5008096;28;20042;-72
2023/03/07 02:28:57;;;;;;;13.80;6.55;;;;;;;0.77;100.00;94240.66;5001307;28;20050;-71
2023/03/07 02:31:23;;;;;;;14.57;6.43;;;;;;;0.76;100.00;94236.50;5006415;28;20042;-72
2023/03/07 02:33:49;;;;;;;14.48;6.15;;;;;;;0.81;100.00;94244.34;5001851;28;20048;-71
2023/03/07 02:36:29;;;;;;;14.68;6.90;;;;;;;0.77;100.00;94238.06;5007226;28;20061;-72
2023/03/07 02:38:56;;;;;;;15.93;6.90;;;;;;;0.88;100.00;94238.19;5003932;28;20049;-72
2023/03/07 02:41:26;;;;;;;13.07;6.30;;;;;;;0.94;100.00;94243.19;5008166;28;20054;-73
2023/03/07 02:43:52;;;;;;;11.23;5.70;;;;;;;0.89;100.00;94239.75;4997746;28;20046;-72
2023/03/07 02:46:19;;;;;;;14.65;6.30;;;;;;;0.94;100.00;94247.63;5006886;28;20042;-72
2023/03/07 02:48:45;;;;;;;16.73;6.85;;;;;;;0.95;100.00;94243.97;5007921;28;20405;-72
2023/03/07 02:51:11;;;;;;;14.23;6.30;;;;;;;0.96;100.00;94250.72;5006448;28;20049;-72
2023/03/07 02:53:36;;;;;;;14.13;6.35;;;;;;;1.00;100.00;94241.47;5006722;28;20038;-72
2023/03/07 02:56:02;;;;;;;13.63;6.45;;;;;;;0.98;100.00;94238.34;5007347;28;20049;-72
2023/03/07 02:58:28;;;;;;;16.30;6.78;;;;;;;1.03;100.00;94248.75;5008778;28;20049;-72
2023/03/07 03:00:54;;;;;;;15.13;6.82;;;;;;;1.00;100.00;94236.28;5007715;28;20041;-72
2023/03/07 03:03:20;;;;;;;16.30;7.45;;;;;;;1.00;100.00;94239.66;5002918;28;20038;-72
2023/03/07 03:05:45;;;;;;;13.75;6.28;;;;;;;1.07;100.00;94236.13;5006782;28;20053;-72
2023/03/07 03:08:11;;;;;;;13.23;6.13;;;;;;;1.04;100.00;94239.97;5009192;28;20041;-72
2023/03/07 03:10:37;;;;;;;12.55;5.95;;;;;;;1.06;100.00;94235.31;5009515;28;20041;-72
2023/03/07 03:13:03;;;;;;;13.18;6.30;;;;;;;1.06;100.00;94235.31;5003879;28;20052;-72
2023/03/07 03:15:28;;;;;;;15.80;6.65;;;;;;;0.99;100.00;94234.72;5007939;28;20053;-72
2023/03/07 03:17:54;;;;;;;14.35;5.93;;;;;;;1.04;100.00;94234.78;5005058;28;20395;-72
2023/03/07 03:20:19;;;;;;;14.57;5.63;;;;;;;1.07;100.00;94236.88;5002664;28;20041;-72
2023/03/07 03:22:45;;;;;;;14.18;6.43;;;;;;;1.05;100.00;94233.75;5000127;28;20049;-72
2023/03/07 03:25:12;;;;;;;12.73;6.80;;;;;;;1.07;100.00;94236.88;5006439;28;20046;-72
2023/03/07 03:27:39;;;;;;;14.05;6.25;;;;;;;1.05;100.00;94233.75;5006972;28;20049;-72
2023/03/07 03:30:06;;;;;;;16.38;6.47;;;;;;;1.11;100.00;94222.44;5005502;28;20046;-72
2023/03/07 03:32:32;;;;;;;13.77;6.00;;;;;;;1.05;100.00;94228.59;5007518;28;20045;-72
2023/03/07 03:34:58;;;;;;;16.80;6.30;;;;;;;1.02;100.00;94223.84;4993407;28;20065;-72
2023/03/07 03:37:24;;;;;;;15.15;6.57;;;;;;;1.07;100.00;94226.53;5007626;28;20057;-72
2023/03/07 03:39:53;;;;;;;13.52;6.45;;;;;;;1.00;100.00;94223.31;5006682;28;20041;-72
2023/03/07 03:42:19;;;;;;;14.85;5.93;;;;;;;1.03;100.00;94226.22;5001109;28;20045;-72
2023/03/07 03:44:44;;;;;;;18.85;6.57;;;;;;;1.03;99.87;94215.06;5005164;28;20047;-72
2023/03/07 03:47:11;;;;;;;16.48;5.97;;;;;;;1.07;99.51;94221.34;5008142;28;20044;-72
2023/03/07 03:49:36;;;;;;;14.82;6.30;;;;;;;1.03;100.00;94215.06;5007380;28;20037;-72
2023/03/07 03:52:03;;;;;;;17.73;7.18;;;;;;;1.03;100.00;94215.06;5004443;28;20437;-72
2023/03/07 03:54:29;;;;;;;13.30;6.03;;;;;;;1.10;99.13;94215.66;5008136;28;20053;-71
2023/03/07 03:56:55;;;;;;;14.02;6.53;;;;;;;1.02;99.78;94218.69;5008065;28;20517;-71
2023/03/07 03:59:21;;;;;;;14.02;6.10;;;;;;;1.02;99.90;94213.50;5006371;28;20042;-71
2023/03/07 04:01:48;;;;;;;12.27;6.25;;;;;;;1.03;98.89;94215.06;5006268;28;20073;-72
2023/03/07 04:04:13;;;;;;;15.20;6.03;;;;;;;1.05;98.83;94213.03;5007462;28;20520;-72
2023/03/07 04:06:41;;;;;;;15.05;6.25;;;;;;;0.99;100.00;94214.78;5010471;28;20038;-72
2023/03/07 04:09:07;;;;;;;14.68;6.80;;;;;;;1.03;99.82;94212.47;5011551;28;20049;-72
2023/03/07 04:11:34;;;;;;;13.85;6.22;;;;;;;1.03;99.34;94204.72;5008065;28;20097;-72
2023/03/07 04:13:59;;;;;;;13.55;5.95;;;;;;;1.11;98.63;94196.53;5014514;28;20045;-72
2023/03/07 04:16:25;;;;;;;13.75;6.47;;;;;;;1.10;98.73;94204.53;5010867;28;20042;-72
2023/03/07 04:18:51;;;;;;;16.52;6.97;;;;;;;1.12;98.48;94197.28;5012289;28;20045;-72
2023/03/07 04:21:18;;;;;;;15.85;6.43;;;;;;;1.10;99.13;94202.72;5009782;28;20536;-72
2023/03/07 04:23:43;;;;;;;15.73;6.65;;;;;;;1.08;98.88;94202.19;5011271;28;20046;-72
2023/03/07 04:26:10;;;;;;;12.43;6.35;;;;;;;1.06;98.91;94203.44;5006673;28;20092;-72
2023/03/07 04:28:44;;;;;;;14.13;6.15;;;;;;;1.10;98.42;94200.13;5002183;28;20045;-72
2023/03/07 04:31:12;;;;;;;22.60;7.28;;;;;;;1.16;98.10;94199.16;5011916;28;20485;-72
2023/03/07 04:33:38;;;;;;;15.00;6.38;;;;;;;1.20;97.92;94200.25;5003920;28;20141;-72
2023/03/07 04:36:04;;;;;;;15.07;6.60;;;;;;;1.15;97.20;94192.41;5009855;28;20076;-72
2023/03/07 04:38:30;;;;;;;14.75;6.45;;;;;;;1.15;96.32;94187.25;5005834;28;20429;-72
2023/03/07 04:40:56;;;;;;;13.23;6.45;;;;;;;1.16;96.67;94193.97;5010081;28;20693;-72
2023/03/07 04:43:21;;;;;;;21.98;6.53;;;;;;;1.22;96.16;94184.44;5005126;28;20046;-72
2023/03/07 04:45:47;;;;;;;18.00;7.40;;;;;;;1.16;96.89;94188.78;5010520;28;20054;-72
2023/03/07 04:48:12;;;;;;;14.05;5.68;;;;;;;1.18;96.88;94191.16;5009036;28;20108;-72
2023/03/07 04:50:38;;;;;;;17.00;6.95;;;;;;;1.19;96.33;94193.50;5006470;28;20037;-72
2023/03/07 04:53:03;;;;;;;17.25;7.07;;;;;;;1.15;97.11;94182.06;5005648;28;20050;-71
2023/03/07 04:55:29;;;;;;;16.60;6.30;;;;;;;1.15;97.36;94187.25;5008755;28;20050;-72
2023/03/07 04:57:56;;;;;;;13.32;6.55;;;;;;;1.07;97.98;94185.06;5008327;28;20034;-71
2023/03/07 05:00:23;;;;;;;14.68;6.95;;;;;;;1.10;98.26;94189.75;5010040;28;20046;-71
2023/03/07 05:02:49;;;;;;;17.27;7.10;;;;;;;1.04;99.06;94180.38;5002860;28;20046;-71
2023/03/07 05:05:15;;;;;;;15.30;7.10;;;;;;;1.01;99.84;94191.22;5007888;28;20486;-72
2023/03/07 05:07:41;;;;;;;15.73;7.03;;;;;;;0.92;100.00;94187.47;5008257;28;20046;-71
2023/03/07 05:10:08;;;;;;;20.20;8.15;;;;;;;0.84;100.00;94197.22;5009549;28;20080;-71
2023/03/07 05:12:33;;;;;;;17.17;7.80;;;;;;;0.85;100.00;94196.22;5004694;28;20073;-70
2023/03/07 05:14:59;;;;;;;21.38;8.15;;;;;;;0.80;100.00;94198.72;5009451;28;20057;-70
2023/03/07 05:17:25;;;;;;;20.27;8.45;;;;;;;0.73;100.00;94200.72;5001298;28;20060;-70
2023/03/07 05:19:51;;;;;;;21.10;8.68;;;;;;;0.80;100.00;94196.13;5006744;28;20040;-70
2023/03/07 05:22:17;;;;;;;17.52;7.15;;;;;;;0.71;100.00;94197.59;5009267;28;20413;-70
2023/03/07 05:24:42;;;;;;;19.20;7.93;;;;;;;0.66;100.00;94197.50;5008929;28;20049;-71
2023/03/07 05:27:08;;;;;;;18.17;7.78;;;;;;;0.60;100.00;94186.31;5007925;28;20054;-71
2023/03/07 05:29:34;;;;;;;16.95;7.68;;;;;;;0.59;100.00;94189.13;5002296;28;20042;-71
2023/03/07 05:32:00;;;;;;;17.38;8.18;;;;;;;0.56;100.00;94190.41;5008956;28;20045;-71
2023/03/07 05:34:26;;;;;;;19.33;8.27;;;;;;;0.49;100.00;94195.75;5004449;28;20101;-71
2023/03/07 05:36:51;;;;;;;24.00;8.35;;;;;;;0.45;100.00;94189.47;5007426;28;20042;-72
2023/03/07 05:39:17;;;;;;;20.05;8.30;;;;;;;0.45;100.00;94183.53;5007412;28;20394;-72
2023/03/07 05:41:42;;;;;;;18.35;8.75;;;;;;;0.31;100.00;94188.25;5008356;28;20541;-72
2023/03/07 05:44:08;;;;;;;17.20;7.85;;;;;;;0.34;100.00;94182.59;5007731;28;20053;-71
2023/03/07 05:46:33;;;;;;;17.52;8.15;;;;;;;0.25;100.00;94184.03;5005304;28;20042;-71
2023/03/07 05:48:59;;;;;;;15.77;7.70;;;;;;;0.19;100.00;94184.94;5009956;28;20510;-71
2023/03/07 05:51:24;;;;;;;19.35;8.57;;;;;;;0.20;100.00;94186.53;5001866;28;20053;-71
2023/03/07 05:53:50;;;;;;;25.45;8.23;;;;;;;0.13;100.00;94184.88;5008175;28;20042;-71
2023/03/07 05:56:15;;;;;;;24.10;9.18;;;;;;;0.15;100.00;94180.25;5009042;28;20034;-71
2023/03/07 05:58:41;;;;;;;21.75;8.73;;;;;;;0.22;100.00;94185.28;5008038;28;20049;-71
2023/03/07 06:01:06;;;;;;;22.63;9.20;;;;;;;0.06;100.00;94186.84;5003711;28;20046;-72
2023/03/07 06:03:32;;;;;;;19.00;7.95;;;;;;;0.03;100.00;94182.16;5007802;28;20066;-72
2023/03/07 06:05:57;;;;;;;19.92;8.98;;;;;;;0.06;100.00;94181.69;5017398;28;20052;-72
2023/03/07 06:08:23;;;;;;;17.70;8.07;;;;;;;-0.01;100.00;94186.22;5014609;28;20050;-71
2023/03/07 06:10:50;;;;;;;22.30;8.77;;;;;;;0.05;100.00;94187.09;5011397;28;20046;-72
2023/03/07 06:13:18;;;;;;;23.27;9.02;;;;;;;-0.11;100.00;94180.91;5010867;28;20046;-73
2023/03/07 06:15:44;;;;;;;22.33;8.85;;;;;;;-0.09;100.00;94191.78;5007724;28;20249;-73
2023/03/07 06:18:09;;;;;;;17.90;8.13;;;;;;;-0.13;100.00;94182.91;5014200;28;20037;-72
2023/03/07 06:20:35;;;;;;;19.90;8.95;;;;;;;-0.14;100.00;94176.19;5015196;28;20037;-72
2023/03/07 06:23:01;;;;;;;21.80;9.00;;;;;;;-0.25;100.00;94181.19;5011908;28;20045;-72
2023/03/07 06:25:27;;;;;;;19.20;7.53;;;;;;;-0.13;100.00;94177.75;5014854;28;20050;-71
2023/03/07 06:27:58;;;;;;;22.50;9.07;;;;;;;-0.24;100.00;94182.75;5002268;28;20148;-72
2023/03/07 06:30:24;;;;;;;22.40;9.25;;;;;;;-0.35;100.00;94186.19;5008334;28;20064;-71
2023/03/07 06:32:49;;;;;;;25.38;8.95;;;;;;;-0.36;100.00;94189.78;5006801;28;20501;-69
2023/03/07 06:35:15;;;;;;;23.58;9.13;;;;;;;-0.25;100.00;94191.53;5003950;28;20042;-71
2023/03/07 06:37:41;;;;;;;23.05;9.07;;;;;;;-0.25;100.00;94191.53;5008038;28;20125;-71
2023/03/07 06:40:08;;;;;;;22.05;8.40;;;;;;;-0.23;100.00;94189.50;5008793;28;20681;-72
2023/03/07 06:42:34;;;;;;;21.15;9.68;;;;;;;-0.13;100.00;94188.09;5006289;28;20520;-71
2023/03/07 06:45:00;;;;;;;20.38;8.65;;;;;;;0.03;100.00;94182.16;5007799;28;20038;-72
2023/03/07 06:47:25;;;;;;;19.55;8.98;;;;;;;0.09;100.00;94186.38;5009740;28;20173;-71
2023/03/07 06:49:51;;;;;;;19.38;9.27;;;;;;;0.19;100.00;94190.94;5005108;28;20060;-71
2023/03/07 06:52:16;;;;;;;21.65;8.65;;;;;;;0.26;100.00;94185.56;5006601;28;20413;-71
2023/03/07 06:54:42;;;;;;;21.35;8.98;;;;;;;0.36;100.00;94184.94;5010113;28;20486;-76
2023/03/07 06:57:07;;;;;;;22.33;9.68;;;;;;;0.46;100.00;94185.88;5002404;28;20069;-72
2023/03/07 06:59:33;;;;;;;23.42;9.13;;;;;;;0.52;100.00;94184.91;5008310;28;20421;-74
2023/03/07 07:02:01;;;;;;;20.23;8.27;;;;;;;0.60;100.00;94190.69;5004959;28;20045;-74
2023/03/07 07:04:27;;;;;;;19.30;8.25;;;;;;;0.65;100.00;94188.19;4998359;28;20486;-74
2023/03/07 07:06:53;;;;;;;18.05;8.15;;;;;;;0.74;100.00;94202.28;5024341;28;20056;-72
2023/03/07 07:09:18;;;;;;;24.83;10.13;;;;;;;0.78;100.00;94203.38;5000868;28;20080;-71
2023/03/07 07:11:44;;;;;;;23.48;9.57;;;;;;;0.80;100.00;94201.31;5007421;28;20049;-71
2023/03/07 07:14:09;;;;;;;21.40;9.38;;;;;;;0.88;100.00;94201.94;5006183;28;20057;-72
2023/03/07 07:16:35;;;;;;;16.77;8.15;;;;;;;0.98;100.00;94191.72;5010272;28;20540;-73
2023/03/07 07:19:00;;;;;;;23.17;9.40;;;;;;;0.99;100.00;94188.06;5008820;28;20034;-72
2023/03/07 07:21:26;;;;;;;22.88;9.15;;;;;;;0.96;100.00;94188.56;5009547;28;20049;-72
2023/03/07 07:23:51;;;;;;;19.88;8.85;;;;;;;1.07;100.00;94185.06;5017278;28;20080;-73
2023/03/07 07:26:17;;;;;;;30.30;10.50;;;;;;;1.13;100.00;94188.50;5014962;28;20117;-74
2023/03/07 07:28:42;;;;;;;23.38;9.18;;;;;;;1.15;100.00;94182.06;5002305;28;20147;-72
2023/03/07 07:31:08;;;;;;;22.85;8.93;;;;;;;1.14;100.00;94185.66;5007698;28;20061;-72
2023/03/07 07:33:34;;;;;;;20.80;9.00;;;;;;;1.23;100.00;94180.06;5001319;28;20045;-74
2023/03/07 07:36:00;;;;;;;22.83;8.45;;;;;;;1.36;100.00;94182.25;5012361;28;20038;-72
2023/03/07 07:38:25;;;;;;;21.33;8.88;;;;;;;1.35;100.00;94175.50;5010547;28;20041;-71
2023/03/07 07:40:51;;;;;;;20.50;8.50;;;;;;;1.41;100.00;94169.38;5010706;28;20042;-71
2023/03/07 07:43:16;;;;;;;16.25;7.82;;;;;;;1.54;100.00;94170.78;5012415;28;20055;-71
2023/03/07 07:45:42;;;;;;;20.05;7.97;;;;;;;1.66;100.00;94176.59;5013062;28;20569;-71
2023/03/07 07:48:08;;;;;;;18.20;7.70;;;;;;;1.64;100.00;94168.28;5013968;28;20646;-71
2023/03/07 07:50:34;;;;;;;19.80;8.68;;;;;;;1.69;100.00;94165.72;5018470;28;20038;-70
2023/03/07 07:52:59;;;;;;;18.27;7.88;;;;;;;1.80;99.16;94171.78;5011643;28;20497;-70
2023/03/07 07:55:25;;;;;;;20.05;8.02;;;;;;;1.93;95.49;94169.81;5013539;28;20057;-70
2023/03/07 07:57:51;;;;;;;17.60;8.13;;;;;;;1.94;95.59;94158.41;5018560;28;20034;-70
2023/03/07 08:00:20;;;;;;;19.55;8.68;;;;;;;2.07;94.39;94160.59;5005174;28;20053;-71
2023/03/07 08:02:49;;;;;;;24.13;7.88;;;;;;;2.22;90.87;94152.88;5007694;28;20041;-73
2023/03/07 08:05:16;;;;;;;15.07;6.93;;;;;;;2.37;89.58;94154.00;5006915;28;20056;-73
2023/03/07 08:07:42;;;;;;;18.60;7.57;;;;;;;2.35;88.73;94148.31;5007753;28;20132;-77
2023/03/07 08:10:09;;;;;;;18.17;7.20;;;;;;;2.41;87.95;94149.88;5013996;28;20086;-77
2023/03/07 08:12:34;;;;;;;15.50;7.18;;;;;;;2.49;85.09;94146.06;5018512;28;20042;-73
2023/03/07 08:15:00;;;;;;;16.02;7.25;;;;;;;2.59;82.43;94151.28;5011834;28;20049;-75
2023/03/07 08:17:28;;;;;;;19.25;7.10;;;;;;;2.62;81.40;94152.63;5006405;28;20399;-72
2023/03/07 08:19:53;;;;;;;13.52;5.78;;;;;;;2.57;79.52;94154.16;5000640;28;20096;-73
2023/03/07 08:22:19;;;;;;;26.33;6.47;;;;;;;2.59;78.42;94149.47;5008632;28;20452;-75
2023/03/07 08:24:45;;;;;;;13.25;5.78;;;;;;;2.59;78.64;94152.06;5007119;28;20069;-74
2023/03/07 08:27:10;;;;;;;16.02;6.63;;;;;;;2.71;79.62;94153.69;5009539;28;20553;-76
2023/03/07 08:29:36;;;;;;;12.20;5.28;;;;;;;2.79;76.56;94150.63;5009347;28;20042;-74
2023/03/07 08:32:02;;;;;;;13.30;5.45;;;;;;;2.77;76.62;94147.47;5009305;28;20053;-73
2023/03/07 08:34:28;;;;;;;16.23;7.18;;;;;;;2.80;76.30;94136.56;5005235;28;20505;-73
2023/03/07 08:36:53;;;;;;;20.73;6.63;;;;;;;2.87;75.61;94131.91;5006544;28;20049;-72
2023/03/07 08:39:19;;;;;;;15.50;6.43;;;;;;;2.95;75.53;94141.06;5008282;28;20478;-74
2023/03/07 08:41:44;;;;;;;17.33;6.05;;;;;;;2.98;75.56;94147.56;5001274;28;20068;-72
2023/03/07 08:44:10;;;;;;;18.08;5.50;;;;;;;3.07;72.85;94138.22;5011381;28;20054;-72
2023/03/07 08:46:35;;;;;;;14.50;6.75;;;;;;;2.98;73.57;94142.38;5010377;28;20045;-71
2023/03/07 08:49:01;;;;;;;15.40;6.10;;;;;;;3.18;73.37;94147.63;5007792;28;20425;-73
2023/03/07 08:51:27;;;;;;;14.63;6.25;;;;;;;3.27;71.36;94140.88;5008305;28;20640;-72
2023/03/07 08:53:53;;;;;;;15.55;5.57;;;;;;;3.35;71.20;94125.81;5002355;28;20052;-73
2023/03/07 08:56:37;;;;;;;13.98;6.53;;;;;;;3.41;71.35;94125.56;5012152;28;20041;-73
2023/03/07 08:59:03;;;;;;;17.27;6.95;;;;;;;3.67;69.71;94137.84;5010707;28;20502;-73
2023/03/07 09:01:28;;;;;;;10.70;4.85;;;;;;;3.72;68.86;94132.63;5010842;28;20042;-74
2023/03/07 09:03:54;;;;;;;47.50;6.55;;;;;;;3.70;67.62;94134.72;5005991;28;20133;-73
2023/03/07 09:06:20;;;;;;;16.60;6.18;;;;;;;3.77;67.79;94127.44;5011806;28;20517;-73
2023/03/07 09:08:46;;;;;;;15.23;6.43;;;;;;;3.76;68.31;94125.88;5012880;28;20490;-73
2023/03/07 09:11:12;;;;;;;15.90;6.75;;;;;;;3.66;68.48;94133.66;5013020;28;20045;-73
2023/03/07 09:13:38;;;;;;;14.55;6.75;;;;;;;3.60;67.39;94133.66;5006324;28;20050;-78
2023/03/07 09:16:07;;;;;;;13.80;6.32;;;;;;;3.78;67.87;94134.22;5013585;28;20053;-74
2023/03/07 09:18:33;;;;;;;15.70;7.03;;;;;;;4.03;67.88;94137.84;5012337;28;20038;-77
2023/03/07 09:21:00;;;;;;;15.60;5.93;;;;;;;3.79;66.26;94133.94;5011694;28;20137;-74
2023/03/07 09:23:26;;;;;;;14.25;5.63;;;;;;;3.92;66.60;94119.63;5012659;28;20034;-73
2023/03/07 09:25:51;;;;;;;14.88;5.72;;;;;;;4.10;66.42;94130.56;5010485;28;20064;-74
2023/03/07 09:28:17;;;;;;;15.82;7.15;;;;;;;4.03;65.81;94119.63;5012110;28;20500;-76
2023/03/07 09:30:42;;;;;;;15.88;6.43;;;;;;;4.15;64.85;94123.53;5009932;28;20034;-75
2023/03/07 09:33:08;;;;;;;16.90;6.43;;;;;;;4.14;65.63;94108.16;5006763;28;20580;-76
2023/03/07 09:35:34;;;;;;;18.27;6.15;;;;;;;4.28;64.41;94111.78;5012705;28;20046;-76
2023/03/07 09:37:59;;;;;;;15.05;6.55;;;;;;;4.29;65.62;94108.09;5011582;28;20417;-74
2023/03/07 09:40:26;;;;;;;17.27;7.03;;;;;;;4.25;64.16;94107.09;5026209;28;20049;-74
2023/03/07 09:43:13;;;;;;;16.67;6.70;;;;;;;4.36;63.83;94107.06;5007180;28;20042;-73
2023/03/07 09:46:11;;;;;;;13.10;5.43;;;;;;;4.54;61.93;94088.28;5010823;28;20049;-73
2023/03/07 09:48:45;;;;;;;12.13;5.15;;;;;;;4.58;62.14;94094.50;5011996;28;20038;-73
2023/03/07 09:51:15;;;;;;;;;;;;;;;4.84;61.67;94091.78;5010116;28;20644;-72
2023/03/07 09:53:43;;;;;;;15.75;6.28;;;;;;;5.18;60.98;94085.88;5010209;28;19967;-72
2023/03/07 09:56:20;;;;;;;13.35;5.93;;;;;;;5.10;59.70;94089.84;5010830;28;20046;-73
2023/03/07 09:58:53;;;;;;;15.23;6.68;;;;;;;5.26;59.62;94093.16;5006191;28;20046;-75
2023/03/07 10:01:25;;;;;;;21.08;6.97;;;;;;;5.18;58.55;94083.28;5005500;28;20045;-76
2023/03/07 10:04:03;;;;;;;18.20;6.38;;;;;;;5.60;57.13;94087.16;5009483;28;20049;-77
2023/03/07 10:06:38;;;;;;;18.42;6.95;;;;;;;5.38;57.52;94070.09;5008905;28;20469;-72
2023/03/07 10:09:09;;;;;;;18.42;7.78;;;;;;;5.10;57.06;94073.41;5010734;28;20058;-75
2023/03/07 10:11:53;;;;;;;19.23;7.28;;;;;;;5.57;57.75;94064.22;5008691;28;20049;-74
2023/03/07 10:14:54;;;;;;;21.40;6.57;;;;;;;5.73;56.78;94050.03;5008863;28;20068;-75
2023/03/07 10:17:23;;;;;;;18.63;6.78;;;;;;;5.67;56.41;94056.31;5007570;28;20279;-74
2023/03/07 10:19:51;;;;;;;18.45;7.00;;;;;;;5.30;56.54;94047.22;5005259;28;20613;-74
2023/03/07 10:22:44;;;;;;;17.45;7.35;;;;;;;6.50;52.45;94053.72;5008412;28;20417;-74
2023/03/07 10:25:24;;;;;;;16.02;7.07;;;;;;;5.95;55.56;94040.97;5008113;28;20485;-75
2023/03/07 10:27:58;;;;;;;18.40;7.40;;;;;;;6.66;53.09;94046.50;5021222;28;20482;-75
2023/03/07 10:30:24;;;;;;;17.38;6.57;;;;;;;6.83;51.08;94029.56;5011262;28;20516;-75
2023/03/07 10:32:58;;;;;;;17.33;6.75;;;;;;;6.71;54.02;94030.75;5012126;28;20038;-73
2023/03/07 10:35:41;;;;;;;16.42;7.43;;;;;;;9.02;49.19;94023.50;5010940;28;20045;-74
2023/03/07 10:38:18;;;;;;;17.88;7.75;;;;;;;8.69;47.32;94025.47;5014321;28;20038;-75
2023/03/07 10:40:58;;;;;;;15.52;6.85;;;;;;;7.24;48.75;94026.38;5026186;28;20052;-74
2023/03/07 10:43:27;;;;;;;18.38;7.60;;;;;;;7.18;49.28;94017.81;5008719;28;20049;-75
2023/03/07 10:45:59;;;;;;;22.77;8.05;;;;;;;8.14;47.84;94006.03;5015401;28;20325;-75
2023/03/07 10:48:26;;;;;;;19.45;7.75;;;;;;;9.41;45.11;94007.41;5009848;28;20060;-75
2023/03/07 10:51:28;;;;;;;16.90;7.32;;;;;;;9.62;44.86;94003.25;5019932;28;20037;-75
2023/03/07 10:53:55;;;;;;;18.35;7.78;;;;;;;8.72;45.67;93993.44;5007422;28;20038;-76
2023/03/07 10:56:21;;;;;;;14.40;7.32;;;;;;;8.10;47.10;93994.63;5019035;28;20038;-76
2023/03/07 10:59:13;;;;;;;16.40;7.40;;;;;;;7.63;48.35;93986.00;5013637;28;20038;-76
2023/03/07 11:01:53;;;;;;;21.17;7.95;;;;;;;8.96;47.60;93981.91;5015980;28;20461;-79
2023/03/07 11:04:23;;;;;;;19.42;8.73;;;;;;;9.66;44.38;93983.19;5011405;28;20054;-76
2023/03/07 11:06:49;;;;;;;18.75;7.85;;;;;;;10.44;43.99;93963.59;5015402;28;20042;-75
2023/03/07 11:09:21;;;;;;;19.10;7.88;;;;;;;10.58;42.41;93956.34;5012632;28;21484;-75
2023/03/07 11:11:50;;;;;;;16.55;7.28;;;;;;;11.38;40.32;93957.16;5012328;28;20046;-75
2023/03/07 11:14:17;;;;;;;14.93;7.13;;;;;;;10.02;42.81;93949.97;5017915;28;20546;-75
2023/03/07 11:16:51;;;;;;;19.63;8.63;;;;;;;11.02;41.67;93940.59;5015840;28;20049;-76
2023/03/07 11:19:42;;;;;;;18.45;8.00;;;;;;;12.09;38.69;93937.44;5020214;28;20049;-75
2023/03/07 11:22:16;;;;;;;21.73;8.32;;;;;;;11.68;39.24;93933.53;5007566;28;20042;-75
2023/03/07 11:24:48;;;;;;;18.52;8.10;;;;;;;12.19;38.46;93936.34;5026142;28;20599;-75
2023/03/07 11:27:30;;;;;;;15.40;7.63;;;;;;;10.30;40.50;93921.63;5015962;28;20482;-76
2023/03/07 11:30:14;;;;;;;16.30;8.05;;;;;;;10.37;42.79;93918.56;5012967;28;20099;-77
2023/03/07 11:32:46;;;;;;;17.02;7.10;;;;;;;10.30;41.44;93915.56;5017400;28;20045;-74